sensor_id;sensor_type;location;lat;lon;timestamp;pressure;altitude;pressure_sealevel;temperature;humidity
77333;BME280;66408;51.326;12.070;2023-07-13T00:01:31;100388.63;;;21.28;47.42
77333;BME280;66408;51.326;12.070;2023-07-13T00:03:59;100389.19;;;21.37;47.46
77333;BME280;66408;51.326;12.070;2023-07-13T00:06:26;100384.47;;;21.41;47.35
77333;BME280;66408;51.326;12.070;2023-07-13T00:08:56;100408.69;;;21.47;47.86
77333;BME280;66408;51.326;12.070;2023-07-13T00:11:23;100413.47;;;21.50;47.88
77333;BME280;66408;51.326;12.070;2023-07-13T00:13:49;100409.13;;;21.53;47.45
77333;BME280;66408;51.326;12.070;2023-07-13T00:16:16;100404.81;;;21.56;48.13
77333;BME280;66408;51.326;12.070;2023-07-13T00:18:42;100412.13;;;21.41;48.36
77333;BME280;66408;51.326;12.070;2023-07-13T00:21:09;100426.56;;;21.27;48.61
77333;BME280;66408;51.326;12.070;2023-07-13T00:23:38;100428.34;;;21.16;49.02
77333;BME280;66408;51.326;12.070;2023-07-13T00:26:06;100425.50;;;21.09;48.79
77333;BME280;66408;51.326;12.070;2023-07-13T00:28:34;100426.16;;;21.02;49.15
77333;BME280;66408;51.326;12.070;2023-07-13T00:31:01;100437.66;;;21.04;49.15
77333;BME280;66408;51.326;12.070;2023-07-13T00:33:28;100446.22;;;20.96;48.92
77333;BME280;66408;51.326;12.070;2023-07-13T00:35:55;100448.91;;;20.92;48.96
77333;BME280;66408;51.326;12.070;2023-07-13T00:38:22;100450.84;;;20.88;49.29
77333;BME280;66408;51.326;12.070;2023-07-13T00:40:49;100458.63;;;20.83;49.55
77333;BME280;66408;51.326;12.070;2023-07-13T00:43:19;100458.94;;;20.77;48.81
77333;BME280;66408;51.326;12.070;2023-07-13T00:48:20;100466.75;;;20.72;48.63
77333;BME280;66408;51.326;12.070;2023-07-13T00:50:50;100469.16;;;20.73;49.36
77333;BME280;66408;51.326;12.070;2023-07-13T00:53:18;100473.25;;;20.83;49.40
77333;BME280;66408;51.326;12.070;2023-07-13T00:55:48;100466.81;;;20.98;48.61
77333;BME280;66408;51.326;12.070;2023-07-13T00:58:16;100463.41;;;21.08;48.09
77333;BME280;66408;51.326;12.070;2023-07-13T01:00:43;100462.06;;;21.22;48.27
77333;BME280;66408;51.326;12.070;2023-07-13T01:03:10;100453.53;;;21.34;46.94
77333;BME280;66408;51.326;12.070;2023-07-13T01:05:36;100459.97;;;21.41;46.87
77333;BME280;66408;51.326;12.070;2023-07-13T01:08:03;100456.47;;;21.44;46.61
77333;BME280;66408;51.326;12.070;2023-07-13T01:10:31;100456.97;;;21.54;46.41
77333;BME280;66408;51.326;12.070;2023-07-13T01:13:09;100462.09;;;21.51;46.28
77333;BME280;66408;51.326;12.070;2023-07-13T01:18:05;100454.41;;;21.68;46.09
77333;BME280;66408;51.326;12.070;2023-07-13T01:20:33;100458.69;;;21.62;46.12
77333;BME280;66408;51.326;12.070;2023-07-13T01:23:08;100461.09;;;21.67;46.20
77333;BME280;66408;51.326;12.070;2023-07-13T01:25:36;100456.31;;;21.64;46.38
77333;BME280;66408;51.326;12.070;2023-07-13T01:28:04;100464.69;;;21.67;46.30
77333;BME280;66408;51.326;12.070;2023-07-13T01:30:30;100462.28;;;21.66;46.73
77333;BME280;66408;51.326;12.070;2023-07-13T01:32:58;100472.56;;;21.65;46.43
77333;BME280;66408;51.326;12.070;2023-07-13T01:35:25;100473.69;;;21.61;46.73
77333;BME280;66408;51.326;12.070;2023-07-13T01:37:53;100473.59;;;21.54;46.81
77333;BME280;66408;51.326;12.070;2023-07-13T01:40:20;100467.78;;;21.62;46.88
77333;BME280;66408;51.326;12.070;2023-07-13T01:42:47;100464.22;;;21.62;46.94
77333;BME280;66408;51.326;12.070;2023-07-13T01:45:13;100470.50;;;21.59;46.61
77333;BME280;66408;51.326;12.070;2023-07-13T01:47:40;100478.38;;;21.57;46.96
77333;BME280;66408;51.326;12.070;2023-07-13T01:50:06;100474.44;;;21.58;47.00
77333;BME280;66408;51.326;12.070;2023-07-13T01:52:33;100463.28;;;21.50;47.06
77333;BME280;66408;51.326;12.070;2023-07-13T01:54:59;100468.38;;;21.48;46.87
77333;BME280;66408;51.326;12.070;2023-07-13T01:57:26;100464.81;;;21.48;47.07
77333;BME280;66408;51.326;12.070;2023-07-13T01:59:52;100467.91;;;21.43;47.25
77333;BME280;66408;51.326;12.070;2023-07-13T02:02:19;100469.03;;;21.38;47.82
77333;BME280;66408;51.326;12.070;2023-07-13T02:04:46;100475.25;;;21.32;47.67
77333;BME280;66408;51.326;12.070;2023-07-13T02:07:12;100471.25;;;21.29;47.74
77333;BME280;66408;51.326;12.070;2023-07-13T02:09:39;100471.25;;;21.29;47.71
77333;BME280;66408;51.326;12.070;2023-07-13T02:12:06;100477.84;;;21.21;47.78
77333;BME280;66408;51.326;12.070;2023-07-13T02:14:33;100478.91;;;21.13;48.18
77333;BME280;66408;51.326;12.070;2023-07-13T02:16:59;100488.00;;;21.13;48.56
77333;BME280;66408;51.326;12.070;2023-07-13T02:19:26;100483.50;;;21.05;48.44
77333;BME280;66408;51.326;12.070;2023-07-13T02:21:52;100484.84;;;20.92;48.73
77333;BME280;66408;51.326;12.070;2023-07-13T02:24:19;100486.47;;;20.93;48.78
77333;BME280;66408;51.326;12.070;2023-07-13T02:26:47;100484.41;;;20.90;49.27
77333;BME280;66408;51.326;12.070;2023-07-13T02:29:14;100475.53;;;20.77;49.96
77333;BME280;66408;51.326;12.070;2023-07-13T02:31:40;100467.19;;;20.74;49.95
77333;BME280;66408;51.326;12.070;2023-07-13T02:34:07;100471.84;;;20.70;49.90
77333;BME280;66408;51.326;12.070;2023-07-13T02:36:34;100474.59;;;20.70;49.96
77333;BME280;66408;51.326;12.070;2023-07-13T02:39:02;100478.09;;;20.67;49.90
77333;BME280;66408;51.326;12.070;2023-07-13T02:41:29;100473.75;;;20.66;50.25
77333;BME280;66408;51.326;12.070;2023-07-13T02:44:00;100470.25;;;20.46;51.11
77333;BME280;66408;51.326;12.070;2023-07-13T02:46:35;100478.81;;;20.22;51.77
77333;BME280;66408;51.326;12.070;2023-07-13T02:49:02;100474.69;;;20.12;51.85
77333;BME280;66408;51.326;12.070;2023-07-13T02:51:29;100477.81;;;20.11;52.24
77333;BME280;66408;51.326;12.070;2023-07-13T02:53:56;100477.75;;;20.07;51.96
77333;BME280;66408;51.326;12.070;2023-07-13T02:56:24;100484.72;;;20.01;52.02
77333;BME280;66408;51.326;12.070;2023-07-13T02:58:51;100481.66;;;20.06;51.99
77333;BME280;66408;51.326;12.070;2023-07-13T03:01:18;100479.22;;;20.01;52.12
77333;BME280;66408;51.326;12.070;2023-07-13T03:03:45;100479.13;;;19.97;52.14
77333;BME280;66408;51.326;12.070;2023-07-13T03:06:13;100477.53;;;19.96;52.23
77333;BME280;66408;51.326;12.070;2023-07-13T03:08:40;100475.97;;;19.80;52.54
77333;BME280;66408;51.326;12.070;2023-07-13T03:11:11;100485.69;;;19.54;53.03
77333;BME280;66408;51.326;12.070;2023-07-13T03:13:39;100492.03;;;19.39;53.26
77333;BME280;66408;51.326;12.070;2023-07-13T03:16:06;100495.06;;;19.18;52.32
77333;BME280;66408;51.326;12.070;2023-07-13T03:18:33;100503.00;;;18.88;52.71
77333;BME280;66408;51.326;12.070;2023-07-13T03:20:59;100498.03;;;18.78;53.21
77333;BME280;66408;51.326;12.070;2023-07-13T03:23:26;100500.69;;;18.75;53.59
77333;BME280;66408;51.326;12.070;2023-07-13T03:26:08;100499.25;;;18.65;53.93
77333;BME280;66408;51.326;12.070;2023-07-13T03:28:36;100500.06;;;18.65;54.37
77333;BME280;66408;51.326;12.070;2023-07-13T03:31:26;100499.84;;;18.58;54.45
77333;BME280;66408;51.326;12.070;2023-07-13T03:33:51;100503.78;;;18.45;54.71
77333;BME280;66408;51.326;12.070;2023-07-13T03:36:21;100507.50;;;18.37;55.33
77333;BME280;66408;51.326;12.070;2023-07-13T03:38:54;100509.56;;;18.40;55.42
77333;BME280;66408;51.326;12.070;2023-07-13T03:41:21;100512.25;;;18.52;55.26
77333;BME280;66408;51.326;12.070;2023-07-13T03:43:49;100518.31;;;18.58;55.13
77333;BME280;66408;51.326;12.070;2023-07-13T03:46:16;100511.47;;;18.52;55.27
77333;BME280;66408;51.326;12.070;2023-07-13T03:48:45;100523.50;;;18.59;55.66
77333;BME280;66408;51.326;12.070;2023-07-13T03:51:13;100523.63;;;18.51;55.88
77333;BME280;66408;51.326;12.070;2023-07-13T03:53:42;100518.72;;;18.44;56.60
77333;BME280;66408;51.326;12.070;2023-07-13T03:56:09;100520.25;;;18.42;56.85
77333;BME280;66408;51.326;12.070;2023-07-13T03:58:39;100522.25;;;18.29;55.85
77333;BME280;66408;51.326;12.070;2023-07-13T04:01:08;100522.47;;;18.24;55.57
77333;BME280;66408;51.326;12.070;2023-07-13T04:03:35;100516.88;;;18.20;55.30
77333;BME280;66408;51.326;12.070;2023-07-13T04:06:04;100528.34;;;18.22;55.38
77333;BME280;66408;51.326;12.070;2023-07-13T04:08:34;100525.94;;;18.21;55.95
77333;BME280;66408;51.326;12.070;2023-07-13T04:11:01;100529.38;;;18.18;56.50
77333;BME280;66408;51.326;12.070;2023-07-13T04:13:28;100538.09;;;18.20;56.41
77333;BME280;66408;51.326;12.070;2023-07-13T04:15:55;100535.56;;;18.27;56.72
77333;BME280;66408;51.326;12.070;2023-07-13T04:18:22;100533.00;;;18.34;56.54
77333;BME280;66408;51.326;12.070;2023-07-13T04:20:49;100540.44;;;18.34;56.85
77333;BME280;66408;51.326;12.070;2023-07-13T04:23:17;100542.97;;;18.39;56.67
77333;BME280;66408;51.326;12.070;2023-07-13T04:25:45;100545.78;;;18.42;56.90
77333;BME280;66408;51.326;12.070;2023-07-13T04:28:12;100543.25;;;18.49;56.94
77333;BME280;66408;51.326;12.070;2023-07-13T04:30:38;100542.63;;;18.56;57.11
77333;BME280;66408;51.326;12.070;2023-07-13T04:33:05;100543.22;;;18.61;57.08
77333;BME280;66408;51.326;12.070;2023-07-13T04:35:32;100538.06;;;18.60;57.17
77333;BME280;66408;51.326;12.070;2023-07-13T04:37:58;100536.22;;;18.64;57.28
77333;BME280;66408;51.326;12.070;2023-07-13T04:40:26;100535.25;;;18.72;57.09
77333;BME280;66408;51.326;12.070;2023-07-13T04:42:53;100532.13;;;18.74;57.17
77333;BME280;66408;51.326;12.070;2023-07-13T04:45:20;100533.84;;;18.78;57.50
77333;BME280;66408;51.326;12.070;2023-07-13T04:47:46;100532.16;;;18.89;57.72
77333;BME280;66408;51.326;12.070;2023-07-13T04:50:13;100534.72;;;18.98;57.62
77333;BME280;66408;51.326;12.070;2023-07-13T04:52:44;100533.03;;;19.09;57.46
77333;BME280;66408;51.326;12.070;2023-07-13T04:55:11;100534.38;;;19.15;57.20
77333;BME280;66408;51.326;12.070;2023-07-13T04:57:38;100546.47;;;19.26;56.80
77333;BME280;66408;51.326;12.070;2023-07-13T05:00:04;100540.88;;;19.38;56.99
77333;BME280;66408;51.326;12.070;2023-07-13T05:02:31;100547.47;;;19.50;57.37
77333;BME280;66408;51.326;12.070;2023-07-13T05:04:59;100545.28;;;19.59;57.00
77333;BME280;66408;51.326;12.070;2023-07-13T05:07:26;100553.47;;;19.71;56.40
77333;BME280;66408;51.326;12.070;2023-07-13T05:09:52;100552.03;;;19.77;56.76
77333;BME280;66408;51.326;12.070;2023-07-13T05:12:19;100543.53;;;19.86;56.31
77333;BME280;66408;51.326;12.070;2023-07-13T05:14:45;100553.75;;;20.01;55.79
77333;BME280;66408;51.326;12.070;2023-07-13T05:17:12;100549.16;;;20.08;56.05
77333;BME280;66408;51.326;12.070;2023-07-13T05:19:38;100552.13;;;20.19;55.36
77333;BME280;66408;51.326;12.070;2023-07-13T05:22:05;100549.09;;;20.24;55.68
77333;BME280;66408;51.326;12.070;2023-07-13T05:24:32;100547.28;;;20.32;55.57
77333;BME280;66408;51.326;12.070;2023-07-13T05:26:58;100545.88;;;20.38;55.29
77333;BME280;66408;51.326;12.070;2023-07-13T05:29:25;100549.28;;;20.51;55.13
77333;BME280;66408;51.326;12.070;2023-07-13T05:31:51;100552.53;;;20.56;55.25
77333;BME280;66408;51.326;12.070;2023-07-13T05:34:18;100559.34;;;20.62;55.19
77333;BME280;66408;51.326;12.070;2023-07-13T05:36:45;100551.34;;;20.76;54.39
77333;BME280;66408;51.326;12.070;2023-07-13T05:39:14;100554.16;;;20.80;54.62
77333;BME280;66408;51.326;12.070;2023-07-13T05:41:40;100558.66;;;20.88;54.29
77333;BME280;66408;51.326;12.070;2023-07-13T05:44:07;100560.81;;;20.98;53.50
77333;BME280;66408;51.326;12.070;2023-07-13T05:46:33;100559.13;;;21.16;52.71
77333;BME280;66408;51.326;12.070;2023-07-13T05:49:00;100562.91;;;21.28;52.55
77333;BME280;66408;51.326;12.070;2023-07-13T05:51:27;100568.56;;;21.35;52.97
77333;BME280;66408;51.326;12.070;2023-07-13T05:53:53;100562.84;;;21.47;52.41
77333;BME280;66408;51.326;12.070;2023-07-13T05:56:19;100573.44;;;21.68;51.49
77333;BME280;66408;51.326;12.070;2023-07-13T05:58:48;100574.38;;;21.79;51.65
77333;BME280;66408;51.326;12.070;2023-07-13T06:01:15;100574.00;;;21.80;51.70
77333;BME280;66408;51.326;12.070;2023-07-13T06:03:42;100570.88;;;21.82;51.06
77333;BME280;66408;51.326;12.070;2023-07-13T06:06:10;100569.59;;;22.02;50.21
77333;BME280;66408;51.326;12.070;2023-07-13T06:08:39;100577.03;;;22.25;50.02
77333;BME280;66408;51.326;12.070;2023-07-13T06:11:09;100576.63;;;22.26;50.16
77333;BME280;66408;51.326;12.070;2023-07-13T06:13:39;100565.41;;;22.45;49.37
77333;BME280;66408;51.326;12.070;2023-07-13T06:16:05;100567.19;;;22.64;48.73
77333;BME280;66408;51.326;12.070;2023-07-13T06:18:36;100564.31;;;22.90;48.35
77333;BME280;66408;51.326;12.070;2023-07-13T06:21:12;100574.44;;;23.09;48.46
77333;BME280;66408;51.326;12.070;2023-07-13T06:23:39;100570.53;;;23.17;48.02
77333;BME280;66408;51.326;12.070;2023-07-13T06:26:06;100572.66;;;23.35;46.63
77333;BME280;66408;51.326;12.070;2023-07-13T06:28:37;100569.63;;;23.50;45.66
77333;BME280;66408;51.326;12.070;2023-07-13T06:31:08;100573.72;;;23.67;45.10
77333;BME280;66408;51.326;12.070;2023-07-13T06:33:36;100571.81;;;23.78;45.11
77333;BME280;66408;51.326;12.070;2023-07-13T06:36:05;100573.84;;;23.88;44.15
77333;BME280;66408;51.326;12.070;2023-07-13T06:38:32;100569.03;;;23.78;44.07
77333;BME280;66408;51.326;12.070;2023-07-13T06:40:58;100579.41;;;23.85;42.57
77333;BME280;66408;51.326;12.070;2023-07-13T06:43:25;100577.16;;;24.08;42.70
77333;BME280;66408;51.326;12.070;2023-07-13T06:45:55;100583.69;;;24.44;41.71
77333;BME280;66408;51.326;12.070;2023-07-13T06:48:22;100576.22;;;24.66;41.62
77333;BME280;66408;51.326;12.070;2023-07-13T06:50:49;100578.16;;;24.62;41.71
77333;BME280;66408;51.326;12.070;2023-07-13T06:53:17;100589.66;;;24.50;41.41
77333;BME280;66408;51.326;12.070;2023-07-13T06:55:44;100588.16;;;24.81;39.54
77333;BME280;66408;51.326;12.070;2023-07-13T06:58:12;100583.88;;;25.12;39.89
77333;BME280;66408;51.326;12.070;2023-07-13T07:00:38;100583.09;;;25.36;38.85
77333;BME280;66408;51.326;12.070;2023-07-13T07:03:07;100590.63;;;25.85;37.61
77333;BME280;66408;51.326;12.070;2023-07-13T07:05:33;100589.38;;;26.11;37.12
77333;BME280;66408;51.326;12.070;2023-07-13T07:08:00;100586.53;;;26.25;36.90
77333;BME280;66408;51.326;12.070;2023-07-13T07:10:29;100588.88;;;26.44;36.42
77333;BME280;66408;51.326;12.070;2023-07-13T07:12:56;100593.91;;;26.78;35.34
77333;BME280;66408;51.326;12.070;2023-07-13T07:15:23;100586.19;;;27.03;34.68
77333;BME280;66408;51.326;12.070;2023-07-13T07:17:49;100596.72;;;26.71;34.27
77333;BME280;66408;51.326;12.070;2023-07-13T07:20:16;100589.97;;;26.68;34.36
77333;BME280;66408;51.326;12.070;2023-07-13T07:22:43;100593.91;;;26.78;34.80
77333;BME280;66408;51.326;12.070;2023-07-13T07:25:12;100603.00;;;26.89;33.10
77333;BME280;66408;51.326;12.070;2023-07-13T07:27:38;100601.81;;;26.94;33.60
77333;BME280;66408;51.326;12.070;2023-07-13T07:30:08;100592.81;;;27.24;32.17
77333;BME280;66408;51.326;12.070;2023-07-13T07:32:38;100596.28;;;27.42;32.17
77333;BME280;66408;51.326;12.070;2023-07-13T07:35:07;100592.97;;;27.54;31.68
77333;BME280;66408;51.326;12.070;2023-07-13T07:37:34;100592.53;;;27.59;31.54
77333;BME280;66408;51.326;12.070;2023-07-13T07:40:04;100585.84;;;27.91;30.02
77333;BME280;66408;51.326;12.070;2023-07-13T07:42:33;100588.81;;;28.10;30.46
77333;BME280;66408;51.326;12.070;2023-07-13T07:45:00;100582.16;;;28.35;29.99
77333;BME280;66408;51.326;12.070;2023-07-13T07:47:27;100593.81;;;28.60;28.89
77333;BME280;66408;51.326;12.070;2023-07-13T07:49:54;100599.84;;;28.58;29.17
77333;BME280;66408;51.326;12.070;2023-07-13T07:52:21;100592.66;;;28.57;29.09
77333;BME280;66408;51.326;12.070;2023-07-13T07:54:47;100599.28;;;28.71;28.79
77333;BME280;66408;51.326;12.070;2023-07-13T07:57:17;100596.09;;;28.69;29.44
77333;BME280;66408;51.326;12.070;2023-07-13T08:00:04;100591.22;;;28.76;28.71
77333;BME280;66408;51.326;12.070;2023-07-13T08:02:33;100598.09;;;28.99;28.39
77333;BME280;66408;51.326;12.070;2023-07-13T08:05:03;100598.66;;;29.17;28.50
77333;BME280;66408;51.326;12.070;2023-07-13T08:07:34;100590.72;;;29.35;27.87
77333;BME280;66408;51.326;12.070;2023-07-13T08:10:01;100606.72;;;29.11;28.81
77333;BME280;66408;51.326;12.070;2023-07-13T08:12:27;100598.81;;;28.79;29.07
77333;BME280;66408;51.326;12.070;2023-07-13T08:14:57;100603.25;;;28.43;30.26
77333;BME280;66408;51.326;12.070;2023-07-13T08:17:24;100589.06;;;28.27;30.08
77333;BME280;66408;51.326;12.070;2023-07-13T08:19:51;100599.75;;;28.66;30.43
77333;BME280;66408;51.326;12.070;2023-07-13T08:22:18;100605.78;;;28.64;30.10
77333;BME280;66408;51.326;12.070;2023-07-13T08:24:44;100605.13;;;28.83;29.57
77333;BME280;66408;51.326;12.070;2023-07-13T08:27:11;100600.75;;;28.52;30.40
77333;BME280;66408;51.326;12.070;2023-07-13T08:29:38;100600.56;;;28.32;30.35
77333;BME280;66408;51.326;12.070;2023-07-13T08:32:06;100596.44;;;28.44;30.76
77333;BME280;66408;51.326;12.070;2023-07-13T08:34:36;100600.91;;;28.38;30.81
77333;BME280;66408;51.326;12.070;2023-07-13T08:37:02;100604.34;;;28.15;30.77
77333;BME280;66408;51.326;12.070;2023-07-13T08:39:33;100608.31;;;27.80;31.10
77333;BME280;66408;51.326;12.070;2023-07-13T08:42:16;100600.66;;;27.87;31.15
77333;BME280;66408;51.326;12.070;2023-07-13T08:44:56;100595.28;;;27.66;31.62
77333;BME280;66408;51.326;12.070;2023-07-13T08:47:31;100604.69;;;27.83;31.55
77333;BME280;66408;51.326;12.070;2023-07-13T08:50:00;100606.53;;;28.34;30.62
77333;BME280;66408;51.326;12.070;2023-07-13T08:52:32;100598.16;;;28.65;30.09
77333;BME280;66408;51.326;12.070;2023-07-13T08:57:46;100599.69;;;29.00;28.84
77333;BME280;66408;51.326;12.070;2023-07-13T09:00:14;100602.41;;;28.76;28.60
77333;BME280;66408;51.326;12.070;2023-07-13T09:02:56;100597.28;;;28.03;29.87
77333;BME280;66408;51.326;12.070;2023-07-13T09:05:33;100597.53;;;28.19;29.97
77333;BME280;66408;51.326;12.070;2023-07-13T09:08:27;100598.53;;;28.36;30.32
77333;BME280;66408;51.326;12.070;2023-07-13T09:13:42;100598.75;;;28.18;30.41
77333;BME280;66408;51.326;12.070;2023-07-13T09:16:12;100592.41;;;27.73;31.01
77333;BME280;66408;51.326;12.070;2023-07-13T09:18:43;100608.75;;;27.75;31.07
77333;BME280;66408;51.326;12.070;2023-07-13T09:21:13;100596.38;;;27.76;31.10
77333;BME280;66408;51.326;12.070;2023-07-13T09:23:41;100605.44;;;28.58;30.21
77333;BME280;66408;51.326;12.070;2023-07-13T09:26:18;100602.34;;;29.10;29.73
77333;BME280;66408;51.326;12.070;2023-07-13T09:28:59;100599.53;;;29.10;29.25
77333;BME280;66408;51.326;12.070;2023-07-13T09:31:36;100606.94;;;28.97;29.42
77333;BME280;66408;51.326;12.070;2023-07-13T09:34:06;100606.50;;;28.99;28.99
77333;BME280;66408;51.326;12.070;2023-07-13T09:36:36;100605.56;;;29.09;28.92
77333;BME280;66408;51.326;12.070;2023-07-13T09:39:10;100601.66;;;29.29;29.86
77333;BME280;66408;51.326;12.070;2023-07-13T09:46:57;100611.41;;;29.45;29.14
77333;BME280;66408;51.326;12.070;2023-07-13T09:49:25;100608.50;;;29.25;29.55
77333;BME280;66408;51.326;12.070;2023-07-13T09:52:02;100608.53;;;28.98;29.61
77333;BME280;66408;51.326;12.070;2023-07-13T09:54:34;100615.19;;;28.47;30.84
77333;BME280;66408;51.326;12.070;2023-07-13T09:57:03;100621.38;;;28.31;30.96
77333;BME280;66408;51.326;12.070;2023-07-13T09:59:41;100623.56;;;28.13;30.74
77333;BME280;66408;51.326;12.070;2023-07-13T10:02:32;100623.00;;;27.91;31.06
77333;BME280;66408;51.326;12.070;2023-07-13T10:05:05;100617.94;;;27.75;30.52
77333;BME280;66408;51.326;12.070;2023-07-13T10:07:38;100612.19;;;27.93;30.46
77333;BME280;66408;51.326;12.070;2023-07-13T10:10:14;100611.34;;;27.96;30.10
77333;BME280;66408;51.326;12.070;2023-07-13T10:12:43;100613.19;;;28.78;29.14
77333;BME280;66408;51.326;12.070;2023-07-13T10:15:19;100617.28;;;29.54;28.40
77333;BME280;66408;51.326;12.070;2023-07-13T10:17:51;100619.50;;;30.09;27.67
77333;BME280;66408;51.326;12.070;2023-07-13T10:20:20;100619.47;;;29.66;26.76
77333;BME280;66408;51.326;12.070;2023-07-13T10:23:02;100628.28;;;29.14;27.63
77333;BME280;66408;51.326;12.070;2023-07-13T10:25:34;100624.22;;;28.58;28.24
77333;BME280;66408;51.326;12.070;2023-07-13T10:28:29;100635.13;;;28.83;28.49
77333;BME280;66408;51.326;12.070;2023-07-13T10:30:58;100621.16;;;29.60;28.00
77333;BME280;66408;51.326;12.070;2023-07-13T10:33:25;100623.34;;;29.95;26.96
77333;BME280;66408;51.326;12.070;2023-07-13T10:36:00;100611.66;;;30.20;25.61
77333;BME280;66408;51.326;12.070;2023-07-13T10:38:30;100615.63;;;30.23;24.99
77333;BME280;66408;51.326;12.070;2023-07-13T10:41:10;100611.31;;;30.38;25.20
77333;BME280;66408;51.326;12.070;2023-07-13T10:43:42;100622.75;;;30.27;25.19
77333;BME280;66408;51.326;12.070;2023-07-13T10:46:16;100622.53;;;29.95;26.00
77333;BME280;66408;51.326;12.070;2023-07-13T10:48:45;100626.06;;;29.29;26.48
77333;BME280;66408;51.326;12.070;2023-07-13T10:51:15;100632.31;;;29.13;26.10
77333;BME280;66408;51.326;12.070;2023-07-13T10:53:42;100628.16;;;29.21;25.91
77333;BME280;66408;51.326;12.070;2023-07-13T10:56:24;100620.28;;;30.10;25.48
77333;BME280;66408;51.326;12.070;2023-07-13T11:01:55;100615.50;;;31.22;24.39
77333;BME280;66408;51.326;12.070;2023-07-13T11:04:24;100623.09;;;31.05;23.72
77333;BME280;66408;51.326;12.070;2023-07-13T11:06:59;100619.03;;;31.58;22.96
77333;BME280;66408;51.326;12.070;2023-07-13T11:09:39;100608.25;;;32.31;22.12
77333;BME280;66408;51.326;12.070;2023-07-13T11:15:02;100612.03;;;33.67;20.48
77333;BME280;66408;51.326;12.070;2023-07-13T11:17:36;100612.63;;;34.31;20.14
77333;BME280;66408;51.326;12.070;2023-07-13T11:20:21;100610.50;;;34.66;19.75
77333;BME280;66408;51.326;12.070;2023-07-13T11:25:36;100595.94;;;35.08;18.72
77333;BME280;66408;51.326;12.070;2023-07-13T11:28:13;100606.72;;;35.31;18.56
77333;BME280;66408;51.326;12.070;2023-07-13T11:33:24;100608.75;;;33.81;18.39
77333;BME280;66408;51.326;12.070;2023-07-13T11:36:04;100607.78;;;33.75;18.80
77333;BME280;66408;51.326;12.070;2023-07-13T11:38:33;100595.66;;;33.87;18.81
77333;BME280;66408;51.326;12.070;2023-07-13T11:41:13;100623.22;;;33.83;18.51
77333;BME280;66408;51.326;12.070;2023-07-13T11:43:43;100594.97;;;33.49;19.81
77333;BME280;66408;51.326;12.070;2023-07-13T11:46:24;100605.16;;;34.03;19.51
77333;BME280;66408;51.326;12.070;2023-07-13T11:48:52;100598.97;;;34.30;19.14
77333;BME280;66408;51.326;12.070;2023-07-13T11:51:23;100587.69;;;34.82;18.53
77333;BME280;66408;51.326;12.070;2023-07-13T11:53:54;100579.00;;;35.08;18.00
77333;BME280;66408;51.326;12.070;2023-07-13T11:56:24;100587.16;;;35.06;17.48
77333;BME280;66408;51.326;12.070;2023-07-13T11:58:54;100583.16;;;34.85;18.07
77333;BME280;66408;51.326;12.070;2023-07-13T12:01:26;100596.19;;;34.61;18.21
77333;BME280;66408;51.326;12.070;2023-07-13T12:03:56;100593.63;;;34.53;18.70
77333;BME280;66408;51.326;12.070;2023-07-13T12:06:34;100589.25;;;34.83;18.54
77333;BME280;66408;51.326;12.070;2023-07-13T12:09:13;100603.31;;;34.43;18.82
77333;BME280;66408;51.326;12.070;2023-07-13T12:11:43;100592.97;;;34.06;19.07
77333;BME280;66408;51.326;12.070;2023-07-13T12:14:17;100594.09;;;33.74;19.53
77333;BME280;66408;51.326;12.070;2023-07-13T12:16:45;100598.63;;;33.71;19.41
77333;BME280;66408;51.326;12.070;2023-07-13T12:19:21;100602.16;;;33.75;19.27
77333;BME280;66408;51.326;12.070;2023-07-13T12:21:49;100597.38;;;33.25;19.37
77333;BME280;66408;51.326;12.070;2023-07-13T12:24:21;100590.50;;;33.01;19.19
77333;BME280;66408;51.326;12.070;2023-07-13T12:27:00;100599.44;;;32.70;19.76
77333;BME280;66408;51.326;12.070;2023-07-13T12:29:28;100605.03;;;32.16;20.92
77333;BME280;66408;51.326;12.070;2023-07-13T12:31:55;100598.56;;;32.03;20.76
77333;BME280;66408;51.326;12.070;2023-07-13T12:34:24;100598.28;;;32.55;21.45
77333;BME280;66408;51.326;12.070;2023-07-13T12:36:56;100593.63;;;33.03;20.24
77333;BME280;66408;51.326;12.070;2023-07-13T12:39:44;100597.56;;;33.05;20.23
77333;BME280;66408;51.326;12.070;2023-07-13T12:44:47;100596.56;;;33.37;20.03
77333;BME280;66408;51.326;12.070;2023-07-13T12:47:15;100593.06;;;33.33;19.85
77333;BME280;66408;51.326;12.070;2023-07-13T12:49:48;100596.22;;;33.23;19.80
77333;BME280;66408;51.326;12.070;2023-07-13T12:52:19;100587.81;;;32.56;20.80
77333;BME280;66408;51.326;12.070;2023-07-13T12:54:57;100597.88;;;32.28;20.73
77333;BME280;66408;51.326;12.070;2023-07-13T12:57:27;100602.94;;;32.62;20.41
77333;BME280;66408;51.326;12.070;2023-07-13T12:59:54;100602.31;;;32.83;20.29
77333;BME280;66408;51.326;12.070;2023-07-13T13:02:29;100596.13;;;33.13;20.04
77333;BME280;66408;51.326;12.070;2023-07-13T13:04:58;100604.09;;;33.40;19.84
77333;BME280;66408;51.326;12.070;2023-07-13T13:07:25;100597.81;;;33.24;19.99
77333;BME280;66408;51.326;12.070;2023-07-13T13:09:52;100607.06;;;33.11;19.83
77333;BME280;66408;51.326;12.070;2023-07-13T13:12:22;100597.22;;;33.03;20.47
77333;BME280;66408;51.326;12.070;2023-07-13T13:14:52;100592.63;;;32.84;20.62
77333;BME280;66408;51.326;12.070;2023-07-13T13:17:22;100596.03;;;32.37;21.10
77333;BME280;66408;51.326;12.070;2023-07-13T13:19:51;100607.50;;;31.85;21.83
77333;BME280;66408;51.326;12.070;2023-07-13T13:22:21;100606.56;;;31.59;22.19